Timeline UpdatesTrip UpdatesNews PostsPvt PostsTravel TipsAdmin PostsConv PostsFollowed PostsChat RequestsBlog PostsPNR Posts

Disclaimer
Search
 
 
Sat Jul 26, 2014 01:26:19 ISTHomeTrainsΣChainsAtlasPNRForumGalleryNewsFAQTripsMembersLoginFeedback
Latest...
.
Wed Nov 20, 2013 (01:29PM)
⇐ Return Journey: Train# 11078

11077/Jhelum Express

Jan 17 2014 (10:58AM)
Change Departure Station:
Change Arrival Station:
Post a Train Travel TipPost a Train Travel Tip **new
Post a Comment/Question/Picture/VideoPost a Comment/Question/Picture/Video
Inaugural Run
Sat Jan 01, 1977
Pantry/Catering
✓ Pantry Car Avbl
✓ Catering Avbl
Loco/Rake Reversals
DD/Daund Junction (7);
RSA - Rake Sharing
No RSA.
Rake/Coach Composition
From Pune-Daund Jn-->Loco, LDS, UR, A1, A2, B1, B2, B3, B4, B5, S1, PC, S2, S3 TO S10, UR, UR, MLTY; Daund Jn To Jammu Tawi--> Loco MLTY ,UR ,UR ,S10 To S2 ,PC ,S1,B5 -B1 ,A2 ,A1 ,UR ,LDS(DD-JAT)
Loco
PUNE-MMR=> PUNE WDP 4D; MMR-LDH=> LDH/GZB WAP-4; LDH-JAT=> LDH WDM3A/...
Read more...
TWIN LDH WDM3A
News    PNR    Forum    Time-Table    Availability    Fare Chart    Map    Arr/Dep History    Trips    Gallery    ΣChains    X/O    Timeline    
Travel Time: 1h 25m    2 halts    Distance: 98 km    Avg Speed: 69 km/hr
Type: Mail/Express
Zone: CR/Central
Departs @ 13:50
Platform# 5
SMTWTFS
Jhansi Junction/JHS 
Arrives @ 15:15
Platform# 2
SMTWTFS
Gwalior Junction/GWL 

2 halts. 10 intermediate Stations between Jhansi Junction and Gwalior Junction

Show ALL intermediate Stations  Show Old Time-Table

#CodeStation NameX/OArrivesAvgDepartsAvgHaltPFDay#KmSpeedElevZoneAddress
1PUNEPune Junction (6)  -17:20-11-1188.266556mCRPune 411001, Maharashtra
2URIUruli (2)X  17:46-17:47-1m21-1159.458553mCRDist. Pune 412202, Maharashtra
3DDDaund Junction (7)XO18:35-18:50-15m51-1112.655521mCRNew Daund Dist. Pune 413801, Maharashtra
4ANGAhmadnagar (2)  20:22-20:25-3m11-1028.468650mCRAhmednagar 414001, Maharashtra
5BAPBelapur (2)X  21:24-21:25-1m11-961.455541mCRShrirampur, Maharashtra
6KPGKopargaon (2)X  22:14-22:15-1m11-916.739508mCRKopargaon 423601, Maharashtra
7MMRManmad Junction (6)23:20-23:30-10m31-874.546580mCRManmad 423104, Maharashtra
8NGNNandgaon (3)X  00:03-00:05-2m22-849.290476mCRNandgaon, Maharashtra
9CSNChalisgaon Junction (3)X  00:33-00:35-2m22-807.082352mCRChalisgaon 424101, Maharashtra
10PCPachora Junction (4)X  01:08-01:10-2m22-762.1102264mCRPachora 424201, Maharashtra
11JLJalgaon Junction (4)X  01:38-01:40-2m32-714.472213mCRJalgaon 425001, Maharashtra
12BSLBhusaval Junction (8)X  02:00-02:10-10m12-690.368208mCRBhusaval 425201, Maharashtra
13BAUBurhanpur (2)  02:58-03:00-2m22-635.843269mCRBurhanpur, Madhya Pradesh
14KNWKhandwa Junction (5)X  04:35-04:40-5m42-567.0124310mCRKhandwa, Madhya Pradesh
15CAERChhanera (2)X  05:02-05:04-2m22-521.587283mWCRChhanera, Madhya Pradesh
16HDHarda (3)  05:47-05:49-2m22-459.361289mWCRHarda, Madhya Pradesh
17TBNTimarni (2)X  06:03-06:05-2m22-445.274308mWCRTimarni, Madhya Pradesh
18BPFBanapura (2)  06:28-06:30-2m12-417.050314mWCRBanapura, Madhya Pradesh
19ETItarsi Junction (7)X  07:10-07:15-5m22-383.560329mWCRItarsi 461111, Madhya Pradesh
20HBDHoshangabad (2)X  07:33-07:35-2m12-365.464308mWCRHoshangabad, Madhya Pradesh
21HBJBhopal HabibGanj (5)X  08:38-08:40-2m32-298.115496mWCRHabibGanj, Madhya Pradesh
22BPLBhopal Junction (6)O  09:05-09:10-5m22-291.887497mWCRBhopal, Madhya Pradesh
23BHSVidisha (3)X  09:47-09:49-2m12-238.381432mWCRVidisha, Madhya Pradesh
24BAQGanj Basoda (4)X  10:18-10:20-2m22-199.050416mWCRVidisha, Madhya Pradesh
25BINABina Junction (4)  11:15-11:20-5m22-153.258414mWCRJn Pt - KATNI/GUNA/ BPL/JHS, Madhya Pradesh
26DUADhaura (3)X  11:56-11:58-2m--2-118.681407mNCRDhaura Tanda, Madhya Pradesh
27LARLalitpur (3)  12:19-12:21-2m32-90.390373mNCRLalitpur, Uttar Pradesh
28BABBabina (3)X  13:04-13:06-2m22-25.545285mNCRBabina, Uttar Pradesh
29JHS»Jhansi Junction (7)»X  13:40-13:50-10m520.068259mNCRJhansi, Uttar Pradesh
30DAADatia (2)X  14:12-14:14-2m2225.083264mNCRDatia, Madhya Pradesh
31DBADabra (3)X  14:36-14:38-2m2255.469204mNCRDabra(District-Gwalior), Madhya Pradesh
32GWL•Gwalior Junction (4)•  15:15-15:20-5m2297.793214mNCRGwalior, Madhya Pradesh
33MRAMorena (3)  15:45-15:47-2m22136.370176mNCRMorena, Madhya Pradesh
34DHODholpur Junction (3)  16:10-16:12-2m12163.157177mNCRDholpur, Rajasthan
35AGCAgra Cantt. (6)X  17:07-17:12-5m32215.734174mNCRAgra, Uttar Pradesh
36RKMRaja Ki Mandi (4)  17:19-17:21-2m12219.769170mNCRAgra, Uttar Pradesh
37MTJMathura Junction (10)X  18:04-18:07-3m32269.472179mNCRMathura, Uttar Pradesh
38FDBFaridabad (4)X  19:41-19:43-2m22382.638206mNRold Faridabad, Haryana
39NZMDelhi Hazrat Nizamuddin (7)  20:16-20:18-2m22403.316209mNRNizamuddin East/Sarai KaleKhan Bus Terminal, Delhi NCT
40NDLSNew Delhi (16)X  20:45-21:05-20m62410.715215mNRNew Delhi, Delhi NCT
41SZMDelhi Sabzi Mandi (2)  21:21-21:23-2m12414.858220mNRGulabi Bagh, Delhi NCT
42NURNarela (2)X  21:47-21:49-2m22438.160222mNRNarela, Delhi NCT
43SNPSonipat (3)X  22:06-22:08-2m22455.260225mNRSonipat, Haryana
44GNUGanaurX  22:24-22:26-2m--2471.153222mNRGanaur, Haryana
45SMKSamalkha (3)22:40-22:41-1m--2483.449229mNRSamalkha, Haryana
46PNPPanipat Junction (5)  23:02-23:04-2m32500.360235mNRPanipat, Haryana
47GRAGharaunda (2)23:21-23:22-1m--2517.366244mNRGharaunda, Haryana
48KUNKarnal (3)  23:38-23:40-2m22534.852253mNRKarnal, Haryana
49TRRTaraori (2)  23:54-23:56-2m12546.938255mNRTaraori, Haryana
50KKDEKurukshetra Junction (3)O  00:29-00:31-2m13567.852260mNRKurukshetra, Haryana
51UMBAmbala Cantt. Junction (7)X  01:20-01:32-12m33609.935278mNRAmbala 133001, Haryana
52UBCAmbala City (3)X  01:45-01:46-1m33617.577273mNRNH-1, Haryana
53RPJRajpura Junction (3)XO  02:02-02:03-1m13638.051272mNRNH-1, Punjab
54SIRSirhind Junction (3)X  02:32-02:34-2m13662.877271mNRSirhind, Punjab
55KNNKhanna (3)X  02:48-02:49-1m13680.856269mNRNH 1, Punjab
56LDHLudhiana Junction (7)X03:35-03:45-10m33723.658246mNRLudhiana 141001, Punjab
57PGWPhagwara Junction (3)X  04:22-04:24-2m23759.261245mNRPhagwara, Punjab
58JRCJalandhar Cantt. Junction (3)  04:40-04:45-5m13775.562239mNRNear Rama Mandi, Punjab
59TDOTanda Urmar (3)  05:26-05:28-2m13817.861239mNRUrmar Tanda, Punjab
60DZADasuya (2)  05:43-05:45-2m23833.150251mNRDasuya distt. hoshiarpur, Punjab
61MEXMukerian (3)  06:03-06:05-2m23848.243257mNRMukerian distt. hosiharpur, Punjab
62PTKCPathankot Cantt (3)  07:00-07:05-5m23888.042328mNRPathankot By Pass Ph:0186-2251594, Punjab
63KTHUKathua (2)  07:38-07:40-2m13911.267396mNRdistt. kathua, Jammu and Kashmir
64HRNRHira Nagar (2)T08:06-08:08-2m13940.089380mNRHiranagar, Jammu and Kashmir
65SMBXSamba (2)X  08:18-08:20-2m23954.825365mNRDist. Samba, Jammu and Kashmir
66VJPJVijaypur Jammu (2)XO  08:47-08:49-2m13966.218353mNRdistt. samba, Jammu and Kashmir
67JATJammu Tawi (3)  10:00--13987.4-337mNRJammu 180002, Jammu and Kashmir
Scroll to Top
Scroll to Bottom